Time;durP1;ratioP1;P1;durP2;ratioP2;P2;SDS_P1;SDS_P2;PMS_P1;PMS_P2;Temp;Humidity;BMP_temperature;BMP_pressure;BME280_temperature;BME280_humidity;BME280_pressure;Samples;Min_cycle;Max_cycle;Signal;HPM_P1;HPM_P2
2022/12/30 00:00:49;;;;;;;4.03;0.80;;;;;;;7.27;100.00;98590.19;4975771;28;20747;-59
2022/12/30 00:03:15;;;;;;;4.17;0.47;;;;;;;7.24;100.00;98581.72;4973838;28;20235;-58
2022/12/30 00:05:42;;;;;;;3.43;0.47;;;;;;;7.31;100.00;98587.19;4975854;28;20232;-59
2022/12/30 00:08:45;;;;;;;1.30;0.40;;;;;;;7.30;100.00;98598.53;4969720;28;21646;-58
2022/12/30 00:10:57;;;;;;;1.60;0.47;;;;;;;7.31;100.00;98588.97;4972178;28;20284;-59
2022/12/30 00:35:30;;;;;;;2.10;0.70;;;;;;;6.99;100.00;98595.13;4974132;28;20247;-59
2022/12/30 00:37:57;;;;;;;2.23;0.60;;;;;;;7.01;100.00;98596.63;4973023;28;20242;-59
2022/12/30 00:40:23;;;;;;;3.23;0.60;;;;;;;6.94;100.00;98588.53;4976881;28;20283;-59
2022/12/30 00:43:08;;;;;;;1.37;0.40;;;;;;;6.83;100.00;98598.97;4974451;28;20637;-59
2022/12/30 00:45:36;;;;;;;2.77;0.80;;;;;;;6.86;100.00;98597.91;4972940;28;20638;-60
2022/12/30 00:56:16;;;;;;;4.47;0.70;;;;;;;6.75;100.00;98604.81;4969870;28;20313;-58
2022/12/30 00:58:44;;;;;;;3.67;0.90;;;;;;;6.72;100.00;98601.63;4971154;28;20238;-59
2022/12/30 01:01:11;;;;;;;3.93;0.70;;;;;;;6.69;100.00;98601.91;4971528;28;20234;-59
2022/12/30 01:03:38;;;;;;;2.37;0.60;;;;;;;6.68;100.00;98595.91;4976999;28;20276;-59
2022/12/30 01:06:08;;;;;;;2.53;0.60;;;;;;;6.69;100.00;98612.28;4971632;28;20229;-59
2022/12/30 01:08:35;;;;;;;1.73;0.60;;;;;;;6.71;100.00;98613.81;4971786;28;20292;-58
2022/12/30 01:11:06;;;;;;;0.73;0.30;;;;;;;6.67;100.00;98608.97;4973728;28;20240;-59
2022/12/30 01:13:32;;;;;;;1.57;0.50;;;;;;;6.72;100.00;98606.81;4973344;28;20284;-59
2022/12/30 01:16:07;;;;;;;6.23;0.90;;;;;;;6.79;100.00;98605.38;4968764;28;20567;-58
2022/12/30 01:18:34;;;;;;;7.47;0.60;;;;;;;6.75;100.00;98616.94;4965161;28;20242;-59
2022/12/30 01:21:01;;;;;;;3.07;0.60;;;;;;;6.72;100.00;98622.41;4968918;28;20748;-59
2022/12/30 01:23:27;;;;;;;2.93;0.70;;;;;;;6.64;100.00;98617.84;4973024;28;20622;-60
2022/12/30 01:25:54;;;;;;;2.63;0.70;;;;;;;6.56;100.00;98621.06;4972560;28;20225;-59
2022/12/30 01:28:20;;;;;;;3.07;0.67;;;;;;;6.49;100.00;98625.09;4972622;28;20233;-59
2022/12/30 01:30:47;;;;;;;3.83;0.80;;;;;;;6.52;100.00;98632.63;4974704;28;20832;-59
2022/12/30 01:33:15;;;;;;;6.03;0.90;;;;;;;6.57;100.00;98630.47;4974547;28;20241;-59
2022/12/30 01:35:41;;;;;;;3.07;0.50;;;;;;;6.56;100.00;98630.63;4978079;28;20296;-60
2022/12/30 01:38:08;;;;;;;3.47;0.63;;;;;;;6.68;100.00;98632.22;4967600;28;20241;-59
2022/12/30 01:40:39;;;;;;;5.60;0.70;;;;;;;6.63;100.00;98627.38;4968449;28;20246;-60
2022/12/30 01:43:09;;;;;;;3.97;0.83;;;;;;;6.63;100.00;98619.59;4968186;28;20292;-58
2022/12/30 01:45:36;;;;;;;4.13;0.80;;;;;;;6.67;100.00;98627.13;4975906;28;20625;-59
2022/12/30 01:48:05;;;;;;;1.53;0.70;;;;;;;6.62;100.00;98620.56;4969035;28;20605;-59
2022/12/30 01:50:39;;;;;;;3.13;0.60;;;;;;;6.59;100.00;98612.22;4972227;28;20225;-59
2022/12/30 01:53:09;;;;;;;3.43;0.80;;;;;;;6.67;100.00;98627.13;4969622;28;20237;-58
2022/12/30 01:55:42;;;;;;;2.80;0.93;;;;;;;6.60;100.00;98625.03;4973111;28;20286;-58
2022/12/30 01:58:12;;;;;;;3.30;0.70;;;;;;;6.55;100.00;98632.38;4971563;28;20308;-59
2022/12/30 02:00:38;;;;;;;1.97;0.83;;;;;;;6.44;100.00;98637.59;4966734;28;20233;-58
2022/12/30 02:03:06;;;;;;;6.70;0.83;;;;;;;6.34;100.00;98630.59;4969901;28;20296;-59
2022/12/30 02:05:38;;;;;;;2.37;0.90;;;;;;;6.32;100.00;98629.91;4970455;28;20225;-58
2022/12/30 02:08:09;;;;;;;7.00;1.23;;;;;;;6.28;100.00;98632.84;4970046;28;20241;-58
2022/12/30 02:10:38;;;;;;;5.13;0.90;;;;;;;6.29;100.00;98634.50;4973055;28;20701;-58
2022/12/30 02:13:04;;;;;;;4.80;0.83;;;;;;;6.26;100.00;98638.16;4971763;28;20238;-59
2022/12/30 02:15:42;;;;;;;7.37;1.17;;;;;;;6.24;100.00;98649.59;4971972;28;20291;-58
2022/12/30 02:18:18;;;;;;;3.80;1.00;;;;;;;6.22;100.00;98654.06;4969245;28;20237;-58
2022/12/30 02:21:20;;;;;;;4.27;0.70;;;;;;;6.28;100.00;98632.84;4973252;28;20236;-58
2022/12/30 02:24:14;;;;;;;5.27;0.80;;;;;;;6.16;100.00;98627.69;4969815;28;20244;-58
2022/12/30 02:27:04;;;;;;;1.80;0.80;;;;;;;6.12;100.00;98623.69;4969363;28;20714;-64
2022/12/30 02:30:08;;;;;;;4.53;0.70;;;;;;;6.08;100.00;98624.06;4971274;28;20226;-59
2022/12/30 02:33:01;;;;;;;4.00;0.60;;;;;;;6.15;100.00;98622.66;4952221;28;20241;-59
2022/12/30 02:35:36;;;;;;;5.87;0.87;;;;;;;6.13;100.00;98620.16;4954381;28;20230;-59
2022/12/30 02:38:14;;;;;;;3.80;1.20;;;;;;;6.17;100.00;98625.94;4970612;28;20241;-59
2022/12/30 02:46:24;;;;;;;3.83;1.07;;;;;;;6.15;100.00;98646.78;4969226;28;20225;-59
2022/12/30 02:48:57;;;;;;;5.83;0.80;;;;;;;6.11;100.00;98647.97;4971366;28;20240;-58
2022/12/30 02:54:14;;;;;;;4.53;0.90;;;;;;;6.06;100.00;98634.56;4971837;28;20717;-59
2022/12/30 02:56:48;;;;;;;4.60;1.00;;;;;;;6.04;100.00;98645.06;4975053;28;20229;-60
2022/12/30 03:05:06;;;;;;;7.63;1.07;;;;;;;5.76;100.00;98646.38;4971464;28;20566;-58
2022/12/30 03:07:42;;;;;;;2.70;0.60;;;;;;;5.83;100.00;98649.28;4969341;28;20292;-58
2022/12/30 03:13:04;;;;;;;5.17;0.90;;;;;;;5.69;100.00;98658.97;4970651;28;20216;-59
2022/12/30 03:15:40;;;;;;;3.50;0.70;;;;;;;5.69;100.00;98661.53;4974445;28;20239;-59
2022/12/30 03:18:08;;;;;;;4.10;0.60;;;;;;;5.67;100.00;98662.63;4975907;28;20228;-60
2022/12/30 03:20:39;;;;;;;3.77;0.70;;;;;;;5.64;100.00;98658.50;4976707;28;21188;-58
2022/12/30 03:28:41;;;;;;;8.37;0.80;;;;;;;6.02;100.00;98664.25;4972874;28;20240;-59
2022/12/30 03:31:12;;;;;;;4.53;0.77;;;;;;;6.09;100.00;98667.19;4971738;28;20229;-59
2022/12/30 03:33:39;;;;;;;3.37;0.70;;;;;;;6.28;100.00;98662.19;4975464;28;20241;-58
2022/12/30 03:36:14;;;;;;;3.03;0.90;;;;;;;6.39;100.00;98650.13;4976808;28;20245;-59
2022/12/30 03:38:45;;;;;;;7.47;0.90;;;;;;;6.45;100.00;98652.22;4974488;28;20748;-59
2022/12/30 03:41:12;;;;;;;5.90;0.60;;;;;;;6.62;100.00;98653.47;4973275;28;20638;-58
2022/12/30 03:43:40;;;;;;;2.77;0.70;;;;;;;6.68;100.00;98647.78;4977046;28;20243;-58
2022/12/30 03:46:07;;;;;;;3.73;0.80;;;;;;;6.75;100.00;98648.09;4973411;28;20233;-58
2022/12/30 03:48:34;;;;;;;4.70;0.80;;;;;;;6.76;100.00;98642.78;4976629;28;20236;-59
2022/12/30 03:51:00;;;;;;;8.23;0.90;;;;;;;6.76;100.00;98636.75;4976669;28;20637;-59
2022/12/30 03:53:28;;;;;;;6.53;0.67;;;;;;;6.74;100.00;98629.13;4976606;28;20237;-59
2022/12/30 03:55:55;;;;;;;2.80;0.73;;;;;;;6.71;100.00;98625.94;4973645;28;20299;-59
2022/12/30 03:58:21;;;;;;;3.73;0.73;;;;;;;6.54;100.00;98625.53;4974790;28;20698;-60
2022/12/30 04:00:50;;;;;;;2.27;0.53;;;;;;;6.38;100.00;98615.59;4974014;28;20280;-59
2022/12/30 04:03:17;;;;;;;4.23;0.87;;;;;;;6.23;100.00;98609.91;4971708;28;20324;-59
2022/12/30 04:05:43;;;;;;;3.87;0.63;;;;;;;6.08;100.00;98604.16;4973774;28;20726;-59
2022/12/30 04:08:10;;;;;;;2.43;0.50;;;;;;;6.00;100.00;98599.59;4973874;28;20241;-58
2022/12/30 04:10:38;;;;;;;0.60;0.40;;;;;;;6.04;100.00;98592.38;4971147;28;20288;-60
2022/12/30 04:13:04;;;;;;;1.10;0.60;;;;;;;5.98;100.00;98583.31;4971733;28;20244;-59
2022/12/30 04:15:31;;;;;;;4.17;0.60;;;;;;;5.85;100.00;98591.22;4976004;28;20241;-59
2022/12/30 04:17:57;;;;;;;2.10;0.50;;;;;;;5.75;100.00;98590.34;4972808;28;20284;-58
2022/12/30 04:20:24;;;;;;;3.80;0.67;;;;;;;5.65;100.00;98587.63;4973439;28;20690;-58
2022/12/30 04:22:50;;;;;;;5.83;0.70;;;;;;;5.64;100.00;98592.94;4971686;28;20469;-59
2022/12/30 04:25:17;;;;;;;0.83;0.43;;;;;;;5.54;100.00;98587.63;4961869;28;20710;-59
2022/12/30 04:27:45;;;;;;;3.23;0.50;;;;;;;5.47;100.00;98579.53;4972578;28;20284;-59
2022/12/30 04:32:53;;;;;;;1.43;0.40;;;;;;;5.40;100.00;98579.19;5045503;23;20685;-58
2022/12/30 04:35:20;;;;;;;4.87;0.60;;;;;;;5.26;100.00;98572.50;4987195;28;20574;-59
2022/12/30 04:37:48;;;;;;;1.27;0.30;;;;;;;5.13;100.00;98582.13;4987209;28;20224;-60
2022/12/30 04:40:14;;;;;;;3.03;0.87;;;;;;;5.12;100.00;98593.41;4983540;28;20714;-59
2022/12/30 04:42:41;;;;;;;3.73;0.43;;;;;;;5.12;100.00;98596.84;4987118;28;20237;-56
2022/12/30 04:45:10;;;;;;;2.57;0.40;;;;;;;5.09;100.00;98588.47;4998272;23;20228;-56
2022/12/30 04:47:37;;;;;;;1.93;0.47;;;;;;;5.04;100.00;98594.00;4986154;28;20296;-55
2022/12/30 04:50:04;;;;;;;3.83;0.60;;;;;;;4.96;100.00;98593.78;4984180;28;20709;-53
2022/12/30 04:52:31;;;;;;;1.57;0.70;;;;;;;4.88;100.00;98597.75;4985739;28;20303;-53
2022/12/30 04:54:57;;;;;;;0.80;0.40;;;;;;;4.72;100.00;98598.09;4984934;28;20229;-56
2022/12/30 04:57:24;;;;;;;1.80;0.40;;;;;;;4.58;100.00;98599.09;4986227;28;20697;-55
2022/12/30 04:59:50;;;;;;;2.07;0.70;;;;;;;4.51;100.00;98591.91;4985000;28;20237;-55
2022/12/30 05:02:18;;;;;;;2.47;0.60;;;;;;;4.45;100.00;98598.34;4986415;28;20233;-55
2022/12/30 05:04:44;;;;;;;2.20;0.40;;;;;;;4.40;100.00;98587.50;4986572;28;20240;-55
2022/12/30 05:07:11;;;;;;;1.87;0.60;;;;;;;4.39;100.00;98594.47;4982125;28;20712;-55
2022/12/30 05:09:38;;;;;;;0.97;0.60;;;;;;;4.50;100.00;98593.66;4987221;28;20241;-56
2022/12/30 05:12:04;;;;;;;1.87;0.33;;;;;;;4.54;100.00;98589.91;4984281;28;20239;-55
2022/12/30 05:14:31;;;;;;;1.43;0.50;;;;;;;4.43;100.00;98597.63;4985760;28;20632;-56
2022/12/30 05:16:57;;;;;;;1.80;0.40;;;;;;;4.35;100.00;98598.19;4984376;28;20237;-55
2022/12/30 05:19:25;;;;;;;1.67;0.60;;;;;;;4.28;100.00;98597.81;4984390;28;20261;-53
2022/12/30 05:21:52;;;;;;;1.47;0.40;;;;;;;4.21;100.00;98596.63;4982774;28;20299;-55
2022/12/30 05:27:02;;;;;;;0.63;0.40;;;;;;;4.18;100.00;98602.03;4981874;28;20241;-55
2022/12/30 05:29:29;;;;;;;1.80;0.70;;;;;;;4.32;100.00;98606.19;4986122;28;20704;-55
2022/12/30 05:31:55;;;;;;;1.43;0.70;;;;;;;4.28;100.00;98597.81;4982518;28;20245;-55
2022/12/30 05:34:22;;;;;;;1.97;0.60;;;;;;;4.37;100.00;98596.31;4985694;28;20242;-56
2022/12/30 05:36:50;;;;;;;30.53;15.90;;;;;;;4.32;100.00;98601.00;4986112;28;20288;-56
2022/12/30 05:39:17;;;;;;;13.70;7.10;;;;;;;4.27;100.00;98596.16;4983403;28;20241;-56
2022/12/30 05:41:43;;;;;;;10.73;6.20;;;;;;;4.23;100.00;98606.84;4986287;28;20240;-55
2022/12/30 05:44:10;;;;;;;9.20;3.43;;;;;;;4.27;100.00;98596.16;4983221;28;20359;-55
2022/12/30 05:46:36;;;;;;;6.57;3.03;;;;;;;4.31;100.00;98590.75;4986371;28;20232;-55
2022/12/30 05:49:03;;;;;;;3.40;1.10;;;;;;;4.34;100.00;98591.38;4983345;28;20291;-55
2022/12/30 05:51:30;;;;;;;4.00;1.90;;;;;;;4.35;100.00;98597.38;4985207;28;20244;-54
2022/12/30 05:53:58;;;;;;;3.40;1.40;;;;;;;4.28;100.00;98590.06;4983863;28;20229;-55
2022/12/30 05:56:25;;;;;;;3.43;1.00;;;;;;;4.27;100.00;98596.16;4985380;28;20237;-55
2022/12/30 05:58:51;;;;;;;8.70;4.27;;;;;;;4.24;100.00;98601.53;4982603;28;20292;-53
2022/12/30 06:01:18;;;;;;;5.90;3.03;;;;;;;4.13;100.00;98604.09;4984380;28;20245;-53
2022/12/30 06:03:44;;;;;;;3.70;2.50;;;;;;;4.13;100.00;98610.09;4982749;28;20240;-55
2022/12/30 06:06:11;;;;;;;3.97;2.53;;;;;;;4.11;100.00;98611.16;4982274;28;20233;-58
2022/12/30 06:08:39;;;;;;;2.67;0.93;;;;;;;4.11;100.00;98601.63;4984484;28;20234;-55
2022/12/30 06:11:07;;;;;;;10.60;2.77;;;;;;;4.26;100.00;98596.28;4981988;28;20276;-55
2022/12/30 06:13:34;;;;;;;6.27;5.47;;;;;;;4.35;100.00;98602.53;4983865;28;20307;-56
2022/12/30 06:16:01;;;;;;;2.93;1.80;;;;;;;4.33;100.00;98605.25;4995040;28;20233;-55
2022/12/30 06:18:27;;;;;;;3.47;1.30;;;;;;;4.25;100.00;98617.88;4983817;28;20295;-56
2022/12/30 06:20:55;;;;;;;3.80;1.57;;;;;;;4.14;100.00;98611.72;4982975;28;20263;-55
2022/12/30 06:23:22;;;;;;;5.50;1.43;;;;;;;4.05;100.00;98609.00;4984592;28;20228;-55
2022/12/30 06:25:51;;;;;;;5.07;1.03;;;;;;;3.91;100.00;98610.81;4985499;28;20245;-56
2022/12/30 06:28:19;;;;;;;3.90;1.47;;;;;;;3.90;100.00;98613.47;4982857;28;20233;-54
2022/12/30 06:30:46;;;;;;;2.73;1.33;;;;;;;3.91;100.00;98613.38;4985166;28;20775;-56
2022/12/30 06:33:12;;;;;;;5.20;1.30;;;;;;;3.84;100.00;98617.34;4982047;28;20708;-55
2022/12/30 06:35:39;;;;;;;1.50;1.20;;;;;;;3.84;100.00;98615.56;4985035;28;20243;-55
2022/12/30 06:38:06;;;;;;;3.00;1.10;;;;;;;3.91;100.00;98618.53;4982346;28;20635;-56
2022/12/30 06:40:32;;;;;;;3.03;2.00;;;;;;;3.94;100.00;98615.75;4984604;28;20612;-56
2022/12/30 06:42:59;;;;;;;1.70;0.83;;;;;;;4.20;100.00;98617.41;4982903;28;20750;-56
2022/12/30 06:45:27;;;;;;;2.80;0.93;;;;;;;4.24;100.00;98613.66;4983338;28;20244;-56
2022/12/30 06:47:53;;;;;;;6.00;2.30;;;;;;;4.42;100.00;98616.66;4981548;28;20229;-56
2022/12/30 06:50:20;;;;;;;4.80;1.50;;;;;;;4.49;100.00;98604.94;4984336;28;20264;-56
2022/12/30 06:52:47;;;;;;;3.87;1.10;;;;;;;4.50;100.00;98614.34;4984718;28;20303;-55
2022/12/30 06:55:13;;;;;;;1.67;0.80;;;;;;;4.51;100.00;98620.34;4982524;28;20238;-53
2022/12/30 06:57:40;;;;;;;7.63;1.10;;;;;;;4.47;100.00;98606.00;4983678;28;20275;-56
2022/12/30 07:00:09;;;;;;;3.20;0.87;;;;;;;4.50;100.00;98611.75;4981630;28;20243;-56
2022/12/30 07:02:36;;;;;;;2.07;0.63;;;;;;;4.52;100.00;98616.81;4984081;28;20315;-54
2022/12/30 07:05:03;;;;;;;3.17;1.10;;;;;;;4.51;100.00;98610.81;4981781;28;20303;-54
2022/12/30 07:07:30;;;;;;;6.63;1.60;;;;;;;4.50;100.00;98603.19;4984304;28;20232;-56
2022/12/30 07:09:56;;;;;;;6.90;1.40;;;;;;;4.50;100.00;98601.41;4982746;28;20229;-54
2022/12/30 07:12:23;;;;;;;6.63;1.27;;;;;;;4.50;100.00;98596.25;4984286;28;20562;-54
2022/12/30 07:14:49;;;;;;;5.60;1.13;;;;;;;4.47;100.00;98600.81;4983131;28;20955;-55
2022/12/30 07:17:16;;;;;;;3.10;1.20;;;;;;;4.49;100.00;98591.19;4984294;28;20292;-56
2022/12/30 07:19:46;;;;;;;6.37;1.77;;;;;;;4.42;100.00;98594.25;4984468;28;20956;-56
2022/12/30 07:22:13;;;;;;;2.97;1.97;;;;;;;4.40;100.00;98601.28;4980046;28;20254;-55
2022/12/30 07:24:39;;;;;;;3.50;1.40;;;;;;;4.37;100.00;98598.06;4984065;28;20232;-56
2022/12/30 07:27:06;;;;;;;8.27;1.57;;;;;;;4.27;100.00;98603.91;4981964;28;20237;-54
2022/12/30 07:29:32;;;;;;;5.17;1.70;;;;;;;4.18;100.00;98604.59;4984041;28;20237;-56
2022/12/30 07:31:59;;;;;;;8.80;4.20;;;;;;;4.20;100.00;98597.56;4982276;28;20669;-53
2022/12/30 07:34:25;;;;;;;7.27;2.00;;;;;;;4.20;100.00;98596.72;4983902;28;20697;-56
2022/12/30 07:36:53;;;;;;;14.47;6.47;;;;;;;4.17;100.00;98584.03;4982690;28;20229;-56
2022/12/30 07:39:20;;;;;;;5.90;1.60;;;;;;;4.23;100.00;98589.59;4983638;28;20229;-53
2022/12/30 07:41:47;;;;;;;5.73;1.40;;;;;;;4.36;100.00;98580.91;4983752;28;20240;-55
2022/12/30 07:44:14;;;;;;;6.20;1.60;;;;;;;4.50;100.00;98578.16;4981023;28;20260;-53
2022/12/30 07:46:41;;;;;;;7.17;2.80;;;;;;;4.50;100.00;98585.91;4983899;28;20237;-56
2022/12/30 07:49:07;;;;;;;3.87;2.10;;;;;;;4.47;100.00;98583.53;4981826;28;20716;-54
2022/12/30 07:51:34;;;;;;;5.47;2.23;;;;;;;4.43;100.00;98580.38;4983397;28;20244;-56
2022/12/30 07:54:02;;;;;;;6.13;3.00;;;;;;;4.43;100.00;98582.97;4981327;28;20779;-53
2022/12/30 07:56:28;;;;;;;9.83;5.70;;;;;;;4.42;100.00;98583.06;4983650;28;20221;-55
2022/12/30 07:58:55;;;;;;;9.70;5.20;;;;;;;4.50;100.00;98582.50;4982341;28;20225;-55
2022/12/30 08:01:22;;;;;;;9.83;4.63;;;;;;;4.46;100.00;98573.34;4987444;28;20229;-54
2022/12/30 08:03:49;;;;;;;11.93;6.40;;;;;;;4.46;100.00;98576.72;4987695;28;20288;-56
2022/12/30 08:06:17;;;;;;;11.30;4.67;;;;;;;4.45;100.00;98575.06;4985535;28;20303;-54
2022/12/30 08:08:44;;;;;;;9.90;4.13;;;;;;;4.48;100.00;98569.69;4987494;28;20237;-57
2022/12/30 08:11:14;;;;;;;11.47;4.03;;;;;;;4.50;100.00;98574.75;4984535;28;20643;-56
2022/12/30 08:13:43;;;;;;;13.47;6.80;;;;;;;4.55;100.00;98564.91;4987814;28;20233;-57
2022/12/30 08:16:13;;;;;;;4.83;2.63;;;;;;;4.56;100.00;98558.78;4984220;28;20239;-56
2022/12/30 08:18:39;;;;;;;8.13;2.33;;;;;;;4.61;100.00;98548.09;4986984;28;20862;-56
2022/12/30 08:21:08;;;;;;;6.23;2.80;;;;;;;4.64;100.00;98547.88;4985459;28;20242;-57
2022/12/30 08:23:35;;;;;;;8.13;3.83;;;;;;;4.67;100.00;98529.53;4987420;28;20229;-55
2022/12/30 08:26:03;;;;;;;4.33;2.47;;;;;;;4.68;100.00;98534.59;4985426;28;20316;-56
2022/12/30 08:28:31;;;;;;;6.20;1.97;;;;;;;4.77;100.00;98533.09;4985481;28;20287;-55
2022/12/30 08:30:58;;;;;;;4.20;2.00;;;;;;;4.82;100.00;98530.13;4984761;28;20245;-56
2022/12/30 08:33:24;;;;;;;5.37;2.90;;;;;;;4.81;100.00;98521.56;4986328;28;20237;-55
2022/12/30 08:35:51;;;;;;;10.57;3.20;;;;;;;4.91;100.00;98523.44;4986937;28;20241;-54
2022/12/30 08:38:18;;;;;;;6.70;2.77;;;;;;;5.00;100.00;98520.16;4984182;28;20647;-56
2022/12/30 08:40:44;;;;;;;8.50;2.80;;;;;;;5.15;100.00;98523.31;4987518;28;20283;-55
2022/12/30 08:43:12;;;;;;;5.23;2.37;;;;;;;5.25;100.00;98523.44;4984726;28;20232;-56
2022/12/30 08:45:40;;;;;;;3.80;1.30;;;;;;;5.41;100.00;98516.09;4987347;28;20241;-57
2022/12/30 08:48:06;;;;;;;5.87;1.60;;;;;;;5.53;100.00;98523.84;4983628;28;20331;-56
2022/12/30 08:50:33;;;;;;;5.77;1.60;;;;;;;5.64;100.00;98521.25;4985385;28;20242;-57
2022/12/30 08:52:59;;;;;;;4.50;1.20;;;;;;;5.74;100.00;98511.78;4983876;28;20902;-57
2022/12/30 08:55:27;;;;;;;5.70;0.70;;;;;;;5.88;100.00;98507.28;4986902;28;20225;-54
2022/12/30 08:57:54;;;;;;;4.00;0.53;;;;;;;6.07;100.00;98504.03;4984076;28;20246;-56
2022/12/30 09:00:20;;;;;;;4.10;0.50;;;;;;;6.21;100.00;98495.16;4985698;28;20685;-56
2022/12/30 09:02:48;;;;;;;3.23;0.87;;;;;;;6.35;100.00;98500.03;4986090;28;20587;-56
2022/12/30 09:05:15;;;;;;;4.90;1.60;;;;;;;6.46;100.00;98490.50;4984464;28;20240;-56
2022/12/30 09:07:41;;;;;;;4.87;1.20;;;;;;;6.52;100.00;98491.78;4986820;28;20240;-57
2022/12/30 09:10:11;;;;;;;5.33;1.53;;;;;;;6.58;100.00;98488.69;4985144;28;20237;-57
2022/12/30 09:12:38;;;;;;;4.00;1.10;;;;;;;6.65;99.11;98476.84;4985387;28;20341;-57
2022/12/30 09:15:07;;;;;;;3.07;0.60;;;;;;;6.73;97.15;98477.00;4984694;28;20232;-55
2022/12/30 09:17:34;;;;;;;3.10;0.50;;;;;;;6.83;95.62;98469.25;4985490;28;20219;-57
2022/12/30 09:20:02;;;;;;;5.57;0.70;;;;;;;6.93;95.36;98483.09;4984232;28;20237;-55
2022/12/30 09:22:28;;;;;;;4.13;0.70;;;;;;;7.07;90.37;98476.69;4985491;28;20299;-56
2022/12/30 09:24:55;;;;;;;5.27;0.70;;;;;;;7.19;91.44;98477.44;4984076;28;20237;-56
2022/12/30 09:27:21;;;;;;;3.53;0.80;;;;;;;7.28;90.93;98464.63;4986007;28;20228;-56
2022/12/30 09:29:48;;;;;;;4.73;0.50;;;;;;;7.33;91.32;98457.25;4986771;28;20295;-57
2022/12/30 09:32:14;;;;;;;2.83;0.60;;;;;;;7.41;90.05;98457.41;4981602;28;20305;-57
2022/12/30 09:34:42;;;;;;;4.63;0.70;;;;;;;7.48;92.27;98458.47;4985382;28;20237;-57
2022/12/30 09:37:10;;;;;;;3.77;0.60;;;;;;;7.55;90.39;98461.38;4984005;28;20244;-57
2022/12/30 09:39:36;;;;;;;4.63;0.60;;;;;;;7.65;90.21;98454.41;4986047;28;20292;-56
2022/12/30 09:45:06;;;;;;;4.97;0.77;;;;;;;7.87;86.03;98441.25;4984612;28;20682;-57
2022/12/30 09:47:36;;;;;;;5.53;0.83;;;;;;;7.92;87.53;98429.50;4981715;28;20382;-57
2022/12/30 09:50:07;;;;;;;1.80;0.50;;;;;;;8.07;86.74;98422.09;4983108;28;20226;-56
2022/12/30 09:52:45;;;;;;;2.57;0.70;;;;;;;8.14;87.40;98430.13;4983759;28;20357;-57
2022/12/30 09:55:16;;;;;;;3.17;0.80;;;;;;;8.25;86.35;98414.38;4983058;28;20228;-57
2022/12/30 09:57:49;;;;;;;8.43;3.57;;;;;;;8.26;90.00;98405.59;4985376;28;20229;-56
2022/12/30 10:00:18;;;;;;;9.50;4.17;;;;;;;8.33;90.34;98403.28;4981586;28;20631;-57
2022/12/30 10:03:01;;;;;;;6.00;3.70;;;;;;;8.43;89.22;98403.22;4985472;28;20237;-57
2022/12/30 10:05:53;;;;;;;9.77;4.43;;;;;;;8.42;90.83;98405.03;4983063;28;20241;-57
2022/12/30 10:08:29;;;;;;;5.77;3.03;;;;;;;8.51;91.20;98385.16;4983279;28;20243;-56
2022/12/30 10:11:05;;;;;;;9.03;2.07;;;;;;;8.59;90.88;98376.63;4983457;28;20236;-56
2022/12/30 10:13:38;;;;;;;7.43;4.70;;;;;;;8.75;88.10;98383.00;4985179;28;20236;-56
2022/12/30 10:16:10;;;;;;;9.10;3.67;;;;;;;8.78;87.38;98378.34;4983129;28;20233;-57
2022/12/30 10:18:49;;;;;;;7.93;3.70;;;;;;;8.81;89.82;98385.00;4984314;28;20233;-57
2022/12/30 10:21:33;;;;;;;8.17;3.70;;;;;;;8.91;86.26;98385.78;4982434;28;20321;-57
2022/12/30 10:24:16;;;;;;;8.63;4.13;;;;;;;8.77;87.58;98394.06;4982424;28;20240;-56
2022/12/30 10:26:47;;;;;;;9.30;5.27;;;;;;;8.84;87.57;98395.13;4984823;28;20257;-56
2022/12/30 10:29:17;;;;;;;7.33;3.77;;;;;;;8.90;86.86;98386.75;4982488;28;20233;-57
2022/12/30 10:31:46;;;;;;;6.93;3.30;;;;;;;9.04;84.94;98387.22;4985094;28;20237;-58
2022/12/30 10:34:15;;;;;;;6.03;2.83;;;;;;;9.20;80.96;98378.75;4996907;28;20567;-57
2022/12/30 10:36:49;;;;;;;5.00;2.07;;;;;;;9.26;78.96;98363.34;4984204;28;20783;-57
2022/12/30 10:39:19;;;;;;;3.10;1.43;;;;;;;9.28;79.12;98366.63;4981308;28;20726;-56
2022/12/30 10:42:03;;;;;;;4.27;1.90;;;;;;;9.51;76.49;98366.19;4985447;28;20252;-57
2022/12/30 10:44:36;;;;;;;3.07;1.73;;;;;;;9.52;77.03;98353.97;4980953;28;20225;-58
2022/12/30 10:47:22;;;;;;;2.87;1.63;;;;;;;9.57;79.03;98352.53;4982294;28;20729;-57
2022/12/30 10:50:01;;;;;;;6.30;2.07;;;;;;;9.60;79.54;98344.41;4984396;28;20231;-58
2022/12/30 10:52:28;;;;;;;3.90;2.27;;;;;;;9.59;78.35;98341.97;4980344;28;20578;-58
2022/12/30 10:54:55;;;;;;;6.40;2.20;;;;;;;9.65;81.50;98340.53;4982462;28;20518;-57
2022/12/30 10:57:26;;;;;;;4.20;2.30;;;;;;;9.70;79.38;98340.88;4982668;28;20287;-57
2022/12/30 10:59:56;;;;;;;3.20;1.60;;;;;;;9.71;82.06;98327.72;4982240;28;20271;-56
2022/12/30 11:02:26;;;;;;;5.00;2.10;;;;;;;9.70;80.46;98327.84;4984173;28;20324;-57
2022/12/30 11:04:52;;;;;;;4.23;3.30;;;;;;;9.78;82.14;98329.72;4981748;28;20232;-56
2022/12/30 11:07:20;;;;;;;7.40;2.60;;;;;;;9.87;80.32;98329.59;4984082;28;20229;-57
2022/12/30 11:09:47;;;;;;;3.40;2.20;;;;;;;9.84;77.52;98318.69;4984270;28;20653;-57
2022/12/30 11:15:18;;;;;;;16.47;11.77;;;;;;;9.98;80.94;98307.69;4981843;28;20235;-57
2022/12/30 11:17:48;;;;;;;8.30;3.70;;;;;;;10.02;81.39;98321.22;4983935;28;20222;-57
2022/12/30 11:20:28;;;;;;;6.13;2.50;;;;;;;10.04;78.96;98316.66;4981502;28;20230;-55
2022/12/30 11:22:56;;;;;;;5.37;3.50;;;;;;;9.97;75.96;98313.03;4981869;28;20244;-55
2022/12/30 11:25:27;;;;;;;4.17;2.53;;;;;;;9.97;78.12;98307.81;4983708;28;20234;-57
2022/12/30 11:27:57;;;;;;;4.07;2.00;;;;;;;9.92;79.74;98304.84;4981794;28;20313;-57
2022/12/30 11:30:29;;;;;;;4.23;2.17;;;;;;;9.83;80.47;98290.97;4983233;28;20284;-56
2022/12/30 11:32:57;;;;;;;5.07;2.20;;;;;;;9.95;82.31;98299.34;4981703;28;20649;-56
2022/12/30 11:35:38;;;;;;;3.57;1.63;;;;;;;10.00;80.67;98297.91;4986249;28;20241;-56
2022/12/30 11:38:25;;;;;;;4.97;2.43;;;;;;;9.91;79.67;98288.41;4985712;28;20308;-57
2022/12/30 11:40:52;;;;;;;5.00;2.60;;;;;;;9.89;82.04;98296.38;4983389;28;20244;-57
2022/12/30 11:43:21;;;;;;;4.80;2.37;;;;;;;9.90;79.14;98289.38;4988049;28;20292;-56
2022/12/30 11:45:56;;;;;;;4.73;1.90;;;;;;;9.81;81.74;98283.28;4988396;28;20245;-54
2022/12/30 11:48:30;;;;;;;3.77;2.00;;;;;;;9.83;81.40;98281.34;4985498;28;20269;-56
2022/12/30 11:50:59;;;;;;;2.67;1.57;;;;;;;9.95;82.07;98268.88;4985896;28;20292;-56
2022/12/30 11:53:30;;;;;;;3.47;1.50;;;;;;;9.97;81.45;98259.13;4987862;28;20722;-56
2022/12/30 11:55:56;;;;;;;3.77;1.63;;;;;;;10.07;79.81;98261.59;4985498;28;20241;-57
2022/12/30 11:58:24;;;;;;;3.53;1.77;;;;;;;10.12;80.79;98263.72;4987286;28;20714;-56
2022/12/30 12:00:59;;;;;;;3.10;1.40;;;;;;;10.11;80.66;98264.69;4984104;28;20237;-56
2022/12/30 12:03:28;;;;;;;2.43;1.33;;;;;;;10.21;77.54;98259.38;4987115;28;20270;-56
2022/12/30 12:06:13;;;;;;;4.20;1.57;;;;;;;10.10;78.68;98261.28;4985464;28;20234;-56
2022/12/30 12:08:47;;;;;;;5.50;2.80;;;;;;;10.17;78.82;98256.25;4986933;28;20222;-56
2022/12/30 12:11:19;;;;;;;6.03;3.93;;;;;;;10.12;78.56;98242.84;4983239;28;20242;-56
2022/12/30 12:13:56;;;;;;;2.93;1.90;;;;;;;10.13;75.74;98226.22;4987984;28;20238;-56
2022/12/30 12:16:33;;;;;;;2.93;1.80;;;;;;;10.31;76.21;98242.59;4985287;28;20318;-55
2022/12/30 12:19:12;;;;;;;5.47;2.77;;;;;;;10.17;79.49;98223.16;4984834;28;20229;-57
2022/12/30 12:21:41;;;;;;;10.63;3.27;;;;;;;10.27;80.84;98232.66;4985795;28;20235;-56
2022/12/30 12:24:16;;;;;;;6.30;3.40;;;;;;;10.36;81.64;98223.88;4985512;28;20646;-56
2022/12/30 12:26:48;;;;;;;5.17;3.17;;;;;;;10.30;80.82;98225.31;4986279;28;20650;-56
2022/12/30 12:29:16;;;;;;;7.53;3.37;;;;;;;10.40;83.20;98222.63;4984301;28;20227;-56
2022/12/30 12:31:58;;;;;;;6.20;3.30;;;;;;;10.33;80.76;98224.19;4987151;28;20292;-57
2022/12/30 12:34:38;;;;;;;3.90;2.40;;;;;;;10.30;80.71;98219.28;4984847;28;20233;-55
2022/12/30 12:37:19;;;;;;;2.03;1.70;;;;;;;10.23;81.68;98200.84;4983276;28;20233;-57
2022/12/30 12:39:54;;;;;;;3.73;2.33;;;;;;;10.10;83.12;98211.72;4986254;28;21282;-56
2022/12/30 12:42:23;;;;;;;6.03;2.90;;;;;;;10.14;82.03;98212.22;4984260;28;20242;-56
2022/12/30 12:45:25;;;;;;;5.33;2.90;;;;;;;9.93;83.33;98202.22;4985956;28;20296;-57
2022/12/30 12:48:06;;;;;;;4.77;2.40;;;;;;;9.93;83.82;98181.34;4981930;28;20308;-56
2022/12/30 12:50:45;;;;;;;6.17;3.63;;;;;;;9.81;86.98;98173.81;4986791;28;20288;-56